UAL617 EDDB-KEWR
Flight info
| Callsign | UAL617 |
|---|---|
| Flight time | N/A |
| Altitude | 34000 |
| Route | SUKIP3A/24R SUKIP Y206 BUREL P203 HLZ L980 SAS DCT MAWEQ DCT TENLI DCT RAVLO Y70 OTBED DCT ABLUC DCT OZRAT DCT WETFI DCT ASKUP DCT TUGSI DCT REVNU DCT RESNO/M082F360 DCT 56N020W 56N030W 56N040W 55N050W DCT LOMSI/N0481F360 N672A ANATI DCT IMORI DCT HANAA FLOSI4 |
| Aircraft | B77W/H-SDE1E2E3FGHIJ2J3J4J5M1RWXY/LB1D1 |
Departure
| Time | 2026-05-04 18:39 |
|---|---|
| Airport | Berlin Brandenburg Airport (EDDB) |
Arrival
| Time | N/A |
|---|---|
| Airport | Newark Liberty International Airport (KEWR) |
| Time | Latitude | Longitude | Altitude | Speed | Heading |
|---|---|---|---|---|---|
| 2026-05-04 17:47 | 52.36633 | 13.50428 | 172 ft | 0 kts | 69° |
| 2026-05-04 18:14 | 52.36633 | 13.50429 | 172 ft | 0 kts | 69° |
| 2026-05-04 18:15 | 52.36633 | 13.50430 | 172 ft | 0 kts | 69° |
| 2026-05-04 18:15 | 52.36633 | 13.50431 | 172 ft | 0 kts | 69° |
| 2026-05-04 18:16 | 52.36633 | 13.50432 | 172 ft | 0 kts | 69° |
| 2026-05-04 18:17 | 52.36634 | 13.50433 | 172 ft | 0 kts | 69° |
| 2026-05-04 18:18 | 52.36634 | 13.50434 | 172 ft | 0 kts | 69° |
| 2026-05-04 18:19 | 52.36634 | 13.50435 | 172 ft | 0 kts | 69° |
| 2026-05-04 18:20 | 52.36634 | 13.50436 | 172 ft | 0 kts | 69° |
| 2026-05-04 18:20 | 52.36634 | 13.50437 | 172 ft | 0 kts | 69° |
| 2026-05-04 18:21 | 52.36635 | 13.50438 | 172 ft | 0 kts | 69° |
| 2026-05-04 18:22 | 52.36635 | 13.50439 | 172 ft | 0 kts | 69° |
| 2026-05-04 18:23 | 52.36635 | 13.50440 | 172 ft | 0 kts | 69° |
| 2026-05-04 18:24 | 52.36635 | 13.50441 | 172 ft | 0 kts | 69° |
| 2026-05-04 18:24 | 52.36636 | 13.50441 | 172 ft | 0 kts | 69° |
| 2026-05-04 18:25 | 52.36636 | 13.50442 | 172 ft | 0 kts | 69° |
| 2026-05-04 18:25 | 52.36635 | 13.50441 | 172 ft | 0 kts | 69° |
| 2026-05-04 18:25 | 52.36629 | 13.50413 | 172 ft | 3 kts | 69° |
| 2026-05-04 18:25 | 52.36620 | 13.50374 | 172 ft | 3 kts | 69° |
| 2026-05-04 18:26 | 52.36610 | 13.50334 | 172 ft | 3 kts | 68° |
| 2026-05-04 18:26 | 52.36599 | 13.50295 | 172 ft | 3 kts | 56° |
| 2026-05-04 18:26 | 52.36584 | 13.50266 | 172 ft | 2 kts | 33° |
| 2026-05-04 18:26 | 52.36565 | 13.50254 | 172 ft | 2 kts | 5° |
| 2026-05-04 18:27 | 52.36544 | 13.50257 | 172 ft | 3 kts | 341° |
| 2026-05-04 18:27 | 52.36533 | 13.50264 | 172 ft | 0 kts | 338° |
| 2026-05-04 18:29 | 52.36541 | 13.50259 | 172 ft | 4 kts | 338° |
| 2026-05-04 18:29 | 52.36592 | 13.50227 | 172 ft | 12 kts | 338° |
| 2026-05-04 18:29 | 52.36660 | 13.50184 | 172 ft | 1 kts | 338° |
| 2026-05-04 18:30 | 52.36675 | 13.50175 | 172 ft | 3 kts | 341° |
| 2026-05-04 18:30 | 52.36704 | 13.50171 | 172 ft | 5 kts | 3° |
| 2026-05-04 18:30 | 52.36750 | 13.50177 | 172 ft | 8 kts | 4° |
| 2026-05-04 18:31 | 52.36810 | 13.50190 | 172 ft | 10 kts | 15° |
| 2026-05-04 18:31 | 52.36856 | 13.50272 | 172 ft | 12 kts | 68° |
| 2026-05-04 18:31 | 52.36892 | 13.50423 | 172 ft | 17 kts | 68° |
| 2026-05-04 18:31 | 52.36939 | 13.50619 | 172 ft | 20 kts | 68° |
| 2026-05-04 18:32 | 52.36982 | 13.50811 | 172 ft | 18 kts | 69° |
| 2026-05-04 18:32 | 52.37024 | 13.50983 | 171 ft | 17 kts | 68° |
| 2026-05-04 18:32 | 52.37070 | 13.51173 | 172 ft | 20 kts | 68° |
| 2026-05-04 18:32 | 52.37119 | 13.51384 | 172 ft | 20 kts | 69° |
| 2026-05-04 18:33 | 52.37164 | 13.51577 | 172 ft | 18 kts | 68° |
| 2026-05-04 18:33 | 52.37209 | 13.51756 | 172 ft | 17 kts | 67° |
| 2026-05-04 18:33 | 52.37253 | 13.51935 | 171 ft | 17 kts | 68° |
| 2026-05-04 18:33 | 52.37296 | 13.52120 | 172 ft | 17 kts | 69° |
| 2026-05-04 18:34 | 52.37338 | 13.52292 | 172 ft | 17 kts | 67° |
| 2026-05-04 18:34 | 52.37384 | 13.52481 | 172 ft | 20 kts | 68° |
| 2026-05-04 18:34 | 52.37434 | 13.52691 | 172 ft | 19 kts | 68° |
| 2026-05-04 18:34 | 52.37503 | 13.52861 | 172 ft | 16 kts | 42° |
| 2026-05-04 18:35 | 52.37582 | 13.52980 | 172 ft | 15 kts | 41° |
| 2026-05-04 18:35 | 52.37635 | 13.53050 | 172 ft | 1 kts | 29° |
| 2026-05-04 18:35 | 52.37636 | 13.53051 | 172 ft | 0 kts | 26° |
| 2026-05-04 18:36 | 52.37643 | 13.53056 | 172 ft | 3 kts | 26° |
| 2026-05-04 18:37 | 52.37690 | 13.53078 | 172 ft | 11 kts | 2° |
| 2026-05-04 18:37 | 52.37774 | 13.53039 | 172 ft | 12 kts | 338° |
| 2026-05-04 18:37 | 52.37819 | 13.52969 | 172 ft | 9 kts | 271° |
| 2026-05-04 18:37 | 52.37816 | 13.52935 | 172 ft | 0 kts | 252° |
| 2026-05-04 18:38 | 52.37778 | 13.52755 | 172 ft | 50 kts | 249° |
| 2026-05-04 18:38 | 52.37583 | 13.51928 | 172 ft | 117 kts | 249° |
| 2026-05-04 18:38 | 52.37220 | 13.50419 | 173 ft | 177 kts | 249° |
| 2026-05-04 18:38 | 52.36739 | 13.48365 | 453 ft | 207 kts | 250° |
| 2026-05-04 18:39 | 52.36222 | 13.46188 | 1283 ft | 214 kts | 249° |
| 2026-05-04 18:39 | 52.35651 | 13.43950 | 1940 ft | 222 kts | 249° |
| 2026-05-04 18:39 | 52.35071 | 13.41538 | 2474 ft | 237 kts | 251° |
| 2026-05-04 18:39 | 52.34479 | 13.38927 | 3052 ft | 253 kts | 250° |
| 2026-05-04 18:40 | 52.33856 | 13.36242 | 3814 ft | 261 kts | 250° |
| 2026-05-04 18:40 | 52.33385 | 13.33475 | 4645 ft | 263 kts | 263° |
| 2026-05-04 18:40 | 52.33268 | 13.30625 | 5519 ft | 264 kts | 270° |
| 2026-05-04 18:40 | 52.33312 | 13.27668 | 6409 ft | 266 kts | 271° |
| 2026-05-04 18:41 | 52.33377 | 13.24731 | 7350 ft | 266 kts | 271° |
| 2026-05-04 18:41 | 52.33442 | 13.21802 | 8190 ft | 268 kts | 271° |
| 2026-05-04 18:41 | 52.33504 | 13.19015 | 8998 ft | 269 kts | 271° |
| 2026-05-04 18:41 | 52.33568 | 13.16075 | 9851 ft | 270 kts | 270° |
| 2026-05-04 18:42 | 52.33633 | 13.13034 | 10498 ft | 279 kts | 270° |
| 2026-05-04 18:42 | 52.33699 | 13.09908 | 10893 ft | 296 kts | 270° |
| 2026-05-04 18:42 | 52.33769 | 13.06521 | 11330 ft | 312 kts | 270° |
| 2026-05-04 18:42 | 52.33846 | 13.02750 | 11786 ft | 330 kts | 270° |
| 2026-05-04 18:43 | 52.33925 | 12.98817 | 12301 ft | 345 kts | 271° |
| 2026-05-04 18:43 | 52.34007 | 12.94704 | 12796 ft | 361 kts | 270° |
| 2026-05-04 18:43 | 52.34090 | 12.90412 | 13470 ft | 371 kts | 271° |
| 2026-05-04 18:43 | 52.34174 | 12.86082 | 14226 ft | 378 kts | 271° |
| 2026-05-04 18:44 | 52.34256 | 12.81745 | 15104 ft | 381 kts | 270° |
| 2026-05-04 18:44 | 52.34312 | 12.78754 | 15742 ft | 382 kts | 270° |
| 2026-05-04 18:44 | 52.34421 | 12.72809 | 16903 ft | 386 kts | 270° |
| 2026-05-04 18:44 | 52.34494 | 12.68738 | 17594 ft | 390 kts | 270° |
| 2026-05-04 18:45 | 52.34569 | 12.64454 | 18385 ft | 393 kts | 270° |
| 2026-05-04 18:45 | 52.34640 | 12.60288 | 19108 ft | 396 kts | 270° |
| 2026-05-04 18:45 | 52.34715 | 12.55787 | 19764 ft | 402 kts | 270° |
| 2026-05-04 18:45 | 52.34787 | 12.51445 | 20517 ft | 404 kts | 270° |
| 2026-05-04 18:46 | 52.34860 | 12.46883 | 21313 ft | 406 kts | 270° |
| 2026-05-04 18:46 | 52.34933 | 12.42217 | 21990 ft | 410 kts | 270° |
| 2026-05-04 18:46 | 52.35006 | 12.37415 | 22599 ft | 416 kts | 270° |
| 2026-05-04 18:46 | 52.35077 | 12.32630 | 23331 ft | 417 kts | 269° |
| 2026-05-04 18:47 | 52.35147 | 12.27813 | 24056 ft | 420 kts | 269° |
| 2026-05-04 18:47 | 52.35206 | 12.23649 | 24641 ft | 422 kts | 269° |
| 2026-05-04 18:47 | 52.35268 | 12.19060 | 25239 ft | 425 kts | 269° |
| 2026-05-04 18:47 | 52.35329 | 12.14460 | 25851 ft | 428 kts | 269° |
| 2026-05-04 18:48 | 52.35388 | 12.09929 | 26468 ft | 430 kts | 269° |
| 2026-05-04 18:48 | 52.35450 | 12.05030 | 27077 ft | 432 kts | 269° |
| 2026-05-04 18:48 | 52.35508 | 12.00158 | 27635 ft | 436 kts | 269° |
| 2026-05-04 18:48 | 52.35566 | 11.95274 | 28234 ft | 438 kts | 269° |
| 2026-05-04 18:49 | 52.35622 | 11.90261 | 28728 ft | 442 kts | 269° |
| 2026-05-04 18:49 | 52.35676 | 11.85271 | 29238 ft | 446 kts | 269° |
| 2026-05-04 18:49 | 52.35730 | 11.80154 | 29832 ft | 447 kts | 269° |
| 2026-05-04 18:49 | 52.35778 | 11.75354 | 29940 ft | 448 kts | 268° |
| 2026-05-04 18:50 | 52.35825 | 11.70601 | 29960 ft | 444 kts | 268° |
| 2026-05-04 18:50 | 52.35912 | 11.61069 | 29943 ft | 442 kts | 269° |
| 2026-05-04 18:50 | 52.36147 | 11.56377 | 29972 ft | 453 kts | 276° |
| 2026-05-04 18:51 | 52.36577 | 11.52013 | 30418 ft | 455 kts | 277° |
| 2026-05-04 18:51 | 52.37052 | 11.47356 | 31403 ft | 446 kts | 277° |
| 2026-05-04 18:51 | 52.37531 | 11.42662 | 32456 ft | 435 kts | 277° |
| 2026-05-04 18:51 | 52.37984 | 11.38207 | 33138 ft | 431 kts | 277° |
| 2026-05-04 18:52 | 52.38446 | 11.33629 | 33674 ft | 429 kts | 276° |
| 2026-05-04 18:52 | 52.38932 | 11.28789 | 33944 ft | 432 kts | 276° |
| 2026-05-04 18:52 | 52.39412 | 11.23979 | 33949 ft | 431 kts | 276° |
| 2026-05-04 18:53 | 52.40340 | 11.14642 | 33940 ft | 430 kts | 276° |
| 2026-05-04 18:53 | 52.41275 | 11.05166 | 33948 ft | 430 kts | 276° |
| 2026-05-04 18:54 | 52.42191 | 10.95794 | 33963 ft | 428 kts | 276° |
| 2026-05-04 18:54 | 52.43104 | 10.86369 | 33956 ft | 427 kts | 276° |
| 2026-05-04 18:55 | 52.43993 | 10.77102 | 33944 ft | 432 kts | 276° |
| 2026-05-04 18:55 | 52.45325 | 10.63095 | 33950 ft | 428 kts | 276° |
| 2026-05-04 18:56 | 52.46139 | 10.54422 | 33960 ft | 439 kts | 276° |
| 2026-05-04 18:56 | 52.46994 | 10.45221 | 33954 ft | 451 kts | 276° |
| 2026-05-04 18:57 | 52.47932 | 10.35047 | 33938 ft | 463 kts | 276° |
| 2026-05-04 18:57 | 52.48890 | 10.24572 | 33933 ft | 462 kts | 275° |
| 2026-05-04 18:58 | 52.49822 | 10.14281 | 33969 ft | 462 kts | 275° |
| 2026-05-04 18:58 | 52.50722 | 10.04244 | 33950 ft | 462 kts | 275° |
| 2026-05-04 18:59 | 52.51614 | 9.94198 | 33956 ft | 463 kts | 275° |
| 2026-05-04 18:59 | 52.52495 | 9.84171 | 33947 ft | 463 kts | 275° |
| 2026-05-04 19:00 | 52.53364 | 9.74192 | 33969 ft | 458 kts | 275° |
| 2026-05-04 19:00 | 52.54224 | 9.64194 | 33950 ft | 462 kts | 275° |
| 2026-05-04 19:01 | 52.55061 | 9.54386 | 33938 ft | 461 kts | 275° |
| 2026-05-04 19:01 | 52.55912 | 9.44310 | 33964 ft | 461 kts | 275° |
| 2026-05-04 19:02 | 52.56753 | 9.34233 | 33963 ft | 461 kts | 274° |
| 2026-05-04 19:02 | 52.57605 | 9.23934 | 33988 ft | 458 kts | 274° |
| 2026-05-04 19:03 | 52.58461 | 9.13453 | 33962 ft | 461 kts | 274° |
| 2026-05-04 19:03 | 52.59299 | 9.03092 | 33967 ft | 460 kts | 274° |
| 2026-05-04 19:04 | 52.60100 | 8.93066 | 33978 ft | 460 kts | 274° |
| 2026-05-04 19:04 | 52.60897 | 8.82982 | 33964 ft | 463 kts | 274° |
| 2026-05-04 19:05 | 52.61680 | 8.72967 | 33982 ft | 461 kts | 273° |
| 2026-05-04 19:05 | 52.62467 | 8.62778 | 33961 ft | 462 kts | 274° |
| 2026-05-04 19:06 | 52.63263 | 8.52356 | 33971 ft | 464 kts | 274° |
| 2026-05-04 19:06 | 52.64056 | 8.41870 | 33960 ft | 462 kts | 274° |
| 2026-05-04 19:07 | 52.64849 | 8.31225 | 33974 ft | 464 kts | 273° |
| 2026-05-04 19:07 | 52.65600 | 8.21039 | 33963 ft | 464 kts | 272° |
| 2026-05-04 19:08 | 52.66367 | 8.10492 | 33959 ft | 465 kts | 272° |
| 2026-05-04 19:08 | 52.67131 | 7.99866 | 33964 ft | 463 kts | 272° |
| 2026-05-04 19:09 | 52.67880 | 7.89308 | 33958 ft | 466 kts | 272° |
| 2026-05-04 19:09 | 52.68581 | 7.79288 | 33957 ft | 467 kts | 273° |
| 2026-05-04 19:10 | 52.69273 | 7.69298 | 33965 ft | 467 kts | 272° |
| 2026-05-04 19:10 | 52.69986 | 7.58859 | 33968 ft | 468 kts | 272° |
| 2026-05-04 19:11 | 52.70715 | 7.48048 | 33966 ft | 468 kts | 273° |
| 2026-05-04 19:11 | 52.71439 | 7.37139 | 33976 ft | 471 kts | 273° |
| 2026-05-04 19:12 | 52.72496 | 7.20960 | 33961 ft | 470 kts | 272° |
| 2026-05-04 19:13 | 52.73185 | 7.10209 | 33971 ft | 469 kts | 272° |
| 2026-05-04 19:13 | 52.73868 | 6.99400 | 33981 ft | 473 kts | 272° |
| 2026-05-04 19:14 | 52.74544 | 6.88556 | 33988 ft | 471 kts | 272° |
| 2026-05-04 19:14 | 52.75210 | 6.77700 | 33978 ft | 472 kts | 272° |
| 2026-05-04 19:15 | 52.75871 | 6.66756 | 33985 ft | 472 kts | 272° |
| 2026-05-04 19:15 | 52.76529 | 6.55701 | 33985 ft | 472 kts | 272° |
| 2026-05-04 19:16 | 52.77185 | 6.44470 | 33979 ft | 476 kts | 272° |
| 2026-05-04 19:16 | 52.77828 | 6.33320 | 33984 ft | 474 kts | 271° |
| 2026-05-04 19:17 | 52.78443 | 6.22455 | 33991 ft | 474 kts | 271° |
| 2026-05-04 19:17 | 52.79048 | 6.11582 | 34006 ft | 475 kts | 271° |
| 2026-05-04 19:18 | 52.79647 | 6.00649 | 34012 ft | 476 kts | 271° |
| 2026-05-04 19:18 | 52.80233 | 5.89759 | 34053 ft | 476 kts | 272° |
| 2026-05-04 19:19 | 52.80824 | 5.78581 | 34022 ft | 477 kts | 272° |
| 2026-05-04 19:19 | 52.81398 | 5.67542 | 34029 ft | 476 kts | 272° |
| 2026-05-04 19:20 | 52.81934 | 5.57034 | 34010 ft | 477 kts | 272° |
| 2026-05-04 19:20 | 52.82452 | 5.46694 | 33992 ft | 479 kts | 272° |
| 2026-05-04 19:21 | 52.83008 | 5.35403 | 33996 ft | 479 kts | 272° |
| 2026-05-04 19:21 | 52.83543 | 5.24332 | 34008 ft | 479 kts | 271° |
| 2026-05-04 19:22 | 52.84072 | 5.13155 | 34001 ft | 479 kts | 271° |
| 2026-05-04 19:22 | 52.84594 | 5.01891 | 34000 ft | 479 kts | 271° |
| 2026-05-04 19:23 | 52.85098 | 4.90793 | 34021 ft | 480 kts | 271° |
| 2026-05-04 19:23 | 52.85593 | 4.79647 | 34032 ft | 482 kts | 271° |
| 2026-05-04 19:24 | 52.86087 | 4.68322 | 34021 ft | 480 kts | 272° |
| 2026-05-04 19:24 | 52.86561 | 4.57185 | 34024 ft | 481 kts | 272° |
| 2026-05-04 19:25 | 52.87028 | 4.45954 | 34012 ft | 483 kts | 272° |
| 2026-05-04 19:25 | 52.87485 | 4.34737 | 34017 ft | 481 kts | 271° |
| 2026-05-04 19:26 | 52.87923 | 4.23716 | 34034 ft | 483 kts | 271° |
| 2026-05-04 19:26 | 52.88360 | 4.12452 | 34011 ft | 483 kts | 271° |
| 2026-05-04 19:27 | 52.88788 | 4.01148 | 34011 ft | 484 kts | 271° |
| 2026-05-04 19:27 | 52.89198 | 3.90022 | 34011 ft | 484 kts | 271° |
| 2026-05-04 19:28 | 52.89607 | 3.78640 | 34008 ft | 485 kts | 272° |
| 2026-05-04 19:28 | 52.89996 | 3.67519 | 34000 ft | 484 kts | 272° |
| 2026-05-04 19:29 | 52.90381 | 3.56239 | 34012 ft | 484 kts | 272° |
| 2026-05-04 19:29 | 52.90749 | 3.45105 | 34014 ft | 485 kts | 272° |
| 2026-05-04 19:30 | 52.91110 | 3.33918 | 34021 ft | 484 kts | 271° |
| 2026-05-04 19:30 | 52.91463 | 3.22608 | 34012 ft | 486 kts | 271° |
| 2026-05-04 19:31 | 52.91851 | 3.11365 | 33996 ft | 486 kts | 275° |
| 2026-05-04 19:31 | 52.93318 | 3.00255 | 33995 ft | 489 kts | 282° |
| 2026-05-04 19:32 | 52.94914 | 2.89212 | 34005 ft | 487 kts | 282° |
| 2026-05-04 19:32 | 52.96425 | 2.78217 | 33999 ft | 488 kts | 282° |
| 2026-05-04 19:33 | 52.97929 | 2.66918 | 34038 ft | 489 kts | 281° |
| 2026-05-04 19:33 | 52.99373 | 2.55841 | 34022 ft | 489 kts | 281° |
| 2026-05-04 19:34 | 53.00809 | 2.44656 | 34024 ft | 489 kts | 281° |
| 2026-05-04 19:34 | 53.02214 | 2.33582 | 34027 ft | 489 kts | 281° |
| 2026-05-04 19:35 | 53.03635 | 2.22265 | 34036 ft | 488 kts | 280° |
| 2026-05-04 19:35 | 53.05065 | 2.10773 | 34024 ft | 489 kts | 281° |
| 2026-05-04 19:36 | 53.06478 | 1.99306 | 34027 ft | 488 kts | 281° |
| 2026-05-04 19:36 | 53.07880 | 1.87835 | 34034 ft | 489 kts | 281° |
| 2026-05-04 19:37 | 53.09243 | 1.76576 | 34029 ft | 491 kts | 281° |
| 2026-05-04 19:37 | 53.10585 | 1.65396 | 34032 ft | 490 kts | 281° |
| 2026-05-04 19:38 | 53.11953 | 1.53906 | 34030 ft | 491 kts | 281° |
| 2026-05-04 19:38 | 53.13304 | 1.42459 | 34031 ft | 491 kts | 282° |
| 2026-05-04 19:39 | 53.14645 | 1.31003 | 34031 ft | 492 kts | 280° |
| 2026-05-04 19:39 | 53.15978 | 1.19500 | 34036 ft | 493 kts | 280° |
| 2026-05-04 19:40 | 53.17292 | 1.08068 | 34031 ft | 493 kts | 280° |
| 2026-05-04 19:40 | 53.18612 | 0.96473 | 34030 ft | 494 kts | 280° |
| 2026-05-04 19:41 | 53.19915 | 0.84927 | 34029 ft | 496 kts | 281° |
| 2026-05-04 19:41 | 53.21188 | 0.73542 | 34034 ft | 495 kts | 281° |
| 2026-05-04 19:42 | 53.22464 | 0.62026 | 34026 ft | 496 kts | 281° |
| 2026-05-04 19:42 | 53.23726 | 0.50525 | 34028 ft | 499 kts | 281° |
| 2026-05-04 19:43 | 53.24984 | 0.38953 | 34033 ft | 499 kts | 281° |
| 2026-05-04 19:43 | 53.26226 | 0.27421 | 34024 ft | 501 kts | 281° |
| 2026-05-04 19:44 | 53.27461 | 0.15837 | 34021 ft | 504 kts | 281° |
| 2026-05-04 19:44 | 53.28699 | 0.04117 | 34047 ft | 506 kts | 280° |
| 2026-05-04 19:45 | 53.30146 | -0.07476 | 34054 ft | 505 kts | 283° |
| 2026-05-04 19:45 | 53.31707 | -0.19129 | 34055 ft | 504 kts | 283° |
| 2026-05-04 19:46 | 53.33285 | -0.31109 | 34048 ft | 506 kts | 284° |
| 2026-05-04 19:46 | 53.34864 | -0.43254 | 34067 ft | 510 kts | 284° |
| 2026-05-04 19:47 | 53.36251 | -0.54041 | 34039 ft | 508 kts | 284° |
| 2026-05-04 19:47 | 53.37716 | -0.65536 | 34050 ft | 509 kts | 283° |
| 2026-05-04 19:48 | 53.39188 | -0.77195 | 34041 ft | 510 kts | 283° |
| 2026-05-04 19:48 | 53.40664 | -0.88995 | 34026 ft | 512 kts | 283° |
| 2026-05-04 19:49 | 53.42088 | -1.00469 | 34042 ft | 509 kts | 283° |
| 2026-05-04 19:49 | 53.43547 | -1.12337 | 34026 ft | 512 kts | 283° |
| 2026-05-04 19:50 | 53.44862 | -1.23121 | 34019 ft | 512 kts | 283° |
| 2026-05-04 19:50 | 53.46260 | -1.34680 | 34045 ft | 511 kts | 283° |
| 2026-05-04 19:51 | 53.47654 | -1.46303 | 34032 ft | 513 kts | 283° |
| 2026-05-04 19:51 | 53.49038 | -1.57956 | 34020 ft | 507 kts | 283° |
| 2026-05-04 19:52 | 53.50433 | -1.69798 | 34036 ft | 514 kts | 283° |
| 2026-05-04 19:52 | 53.51825 | -1.81719 | 34035 ft | 514 kts | 283° |
| 2026-05-04 19:53 | 53.53191 | -1.93537 | 34034 ft | 513 kts | 283° |
| 2026-05-04 19:53 | 53.54549 | -2.05394 | 34018 ft | 511 kts | 283° |
| 2026-05-04 19:54 | 53.55891 | -2.17213 | 34029 ft | 513 kts | 283° |
| 2026-05-04 19:54 | 53.57208 | -2.28923 | 34049 ft | 509 kts | 283° |
| 2026-05-04 19:55 | 53.58520 | -2.40700 | 34041 ft | 507 kts | 283° |
| 2026-05-04 19:55 | 53.59805 | -2.52340 | 34042 ft | 508 kts | 283° |
| 2026-05-04 19:56 | 53.61094 | -2.64126 | 34063 ft | 508 kts | 283° |
| 2026-05-04 19:56 | 53.62375 | -2.75957 | 34080 ft | 509 kts | 282° |
| 2026-05-04 19:57 | 53.63647 | -2.87822 | 34081 ft | 509 kts | 282° |
| 2026-05-04 19:57 | 53.64876 | -2.99399 | 34081 ft | 508 kts | 282° |
| 2026-05-04 19:58 | 53.66112 | -3.11147 | 34078 ft | 506 kts | 282° |
| 2026-05-04 19:58 | 53.67309 | -3.22649 | 34066 ft | 504 kts | 282° |
| 2026-05-04 19:59 | 53.68525 | -3.34437 | 34079 ft | 512 kts | 282° |
| 2026-05-04 19:59 | 53.69714 | -3.46091 | 34084 ft | 501 kts | 282° |
| 2026-05-04 20:00 | 53.70871 | -3.57541 | 34064 ft | 506 kts | 282° |
| 2026-05-04 20:00 | 53.72032 | -3.69146 | 34070 ft | 504 kts | 281° |
| 2026-05-04 20:01 | 53.73191 | -3.80856 | 34050 ft | 504 kts | 282° |
| 2026-05-04 20:01 | 53.74334 | -3.92514 | 34066 ft | 508 kts | 282° |
| 2026-05-04 20:02 | 53.75440 | -4.03927 | 34042 ft | 503 kts | 282° |
| 2026-05-04 20:02 | 53.76568 | -4.15684 | 34043 ft | 504 kts | 281° |
| 2026-05-04 20:03 | 53.77686 | -4.27462 | 34063 ft | 501 kts | 281° |
| 2026-05-04 20:03 | 53.78786 | -4.39180 | 34078 ft | 503 kts | 281° |
| 2026-05-04 20:04 | 53.79819 | -4.51044 | 34063 ft | 504 kts | 277° |
| 2026-05-04 20:04 | 53.80297 | -4.63184 | 34070 ft | 502 kts | 276° |
| 2026-05-04 20:05 | 53.80710 | -4.75040 | 34070 ft | 505 kts | 275° |
| 2026-05-04 20:05 | 53.81114 | -4.87160 | 34072 ft | 504 kts | 275° |
| 2026-05-04 20:06 | 53.81502 | -4.99337 | 34072 ft | 506 kts | 275° |
| 2026-05-04 20:06 | 53.81882 | -5.11703 | 34072 ft | 503 kts | 275° |
| 2026-05-04 20:07 | 53.82238 | -5.23721 | 34074 ft | 504 kts | 275° |
| 2026-05-04 20:07 | 53.82580 | -5.35667 | 34072 ft | 501 kts | 275° |
| 2026-05-04 20:08 | 53.82908 | -5.47502 | 34072 ft | 501 kts | 275° |
| 2026-05-04 20:08 | 53.83953 | -5.59541 | 34074 ft | 501 kts | 283° |
| 2026-05-04 20:09 | 53.85215 | -5.71518 | 34076 ft | 500 kts | 282° |
| 2026-05-04 20:09 | 53.86489 | -5.83783 | 34076 ft | 498 kts | 282° |
| 2026-05-04 20:10 | 53.87681 | -5.95404 | 34080 ft | 498 kts | 281° |
| 2026-05-04 20:10 | 53.88910 | -6.07530 | 34072 ft | 496 kts | 281° |
| 2026-05-04 20:11 | 53.90141 | -6.19525 | 34075 ft | 499 kts | 282° |
| 2026-05-04 20:11 | 53.91391 | -6.31564 | 34074 ft | 497 kts | 282° |
| 2026-05-04 20:12 | 53.92602 | -6.43357 | 34078 ft | 496 kts | 282° |
| 2026-05-04 20:12 | 53.93819 | -6.55346 | 34077 ft | 495 kts | 282° |
| 2026-05-04 20:13 | 53.94996 | -6.67064 | 34076 ft | 496 kts | 281° |
| 2026-05-04 20:13 | 53.96142 | -6.78597 | 34073 ft | 496 kts | 281° |
| 2026-05-04 20:14 | 53.97262 | -6.89987 | 34072 ft | 492 kts | 281° |
| 2026-05-04 20:14 | 53.98388 | -7.01558 | 34064 ft | 495 kts | 281° |
| 2026-05-04 20:15 | 53.99495 | -7.13049 | 34073 ft | 494 kts | 281° |
| 2026-05-04 20:15 | 54.01012 | -7.24385 | 34091 ft | 492 kts | 288° |
| 2026-05-04 20:16 | 54.02930 | -7.35463 | 34087 ft | 490 kts | 288° |